Time;durP1;ratioP1;P1;durP2;ratioP2;P2;SDS_P1;SDS_P2;PMS_P1;PMS_P2;Temp;Humidity;BMP_temperature;BMP_pressure;BME280_temperature;BME280_humidity;BME280_pressure;Samples;Min_cycle;Max_cycle;Signal;HPM_P1;HPM_P2
2024/04/07 00:01:18;;;;;;;1.83;1.20;;;20.20;60.90;;;;;;5032786;28;20578;-65
2024/04/07 00:03:43;;;;;;;2.13;1.10;;;20.20;60.90;;;;;;5033626;28;20025;-64
2024/04/07 00:06:09;;;;;;;1.10;1.00;;;20.20;60.90;;;;;;5030434;28;20621;-65
2024/04/07 00:08:34;;;;;;;1.05;0.82;;;20.30;60.90;;;;;;5027176;28;20018;-65
2024/04/07 00:11:03;;;;;;;1.95;0.98;;;20.30;60.90;;;;;;5031856;28;20053;-65
2024/04/07 00:13:30;;;;;;;0.95;0.93;;;20.30;60.90;;;;;;5028973;28;20055;-64
2024/04/07 00:15:56;;;;;;;1.00;0.80;;;20.30;60.90;;;;;;5026077;28;20030;-64
2024/04/07 00:18:21;;;;;;;1.92;0.90;;;20.20;61.00;;;;;;5025114;28;20498;-65
2024/04/07 00:20:47;;;;;;;2.17;0.80;;;20.20;61.10;;;;;;5033181;28;20025;-66
2024/04/07 00:23:12;;;;;;;1.92;1.00;;;20.20;61.20;;;;;;5031454;28;20020;-65
2024/04/07 00:25:38;;;;;;;1.13;0.80;;;20.20;61.90;;;;;;5029140;28;20647;-65
2024/04/07 00:28:05;;;;;;;1.08;0.80;;;20.10;61.30;;;;;;5026758;28;20385;-66
2024/04/07 00:30:31;;;;;;;1.25;0.95;;;20.10;61.30;;;;;;5035525;28;20025;-65
2024/04/07 00:32:57;;;;;;;4.00;1.60;;;20.10;61.40;;;;;;5034556;28;20022;-65
2024/04/07 00:35:23;;;;;;;0.82;0.80;;;20.10;61.40;;;;;;5024369;28;20030;-65
2024/04/07 00:37:48;;;;;;;1.63;1.15;;;20.10;61.50;;;;;;5028589;28;20037;-65
2024/04/07 00:40:14;;;;;;;2.50;1.05;;;20.10;61.70;;;;;;5028332;28;20060;-65
2024/04/07 00:42:39;;;;;;;3.03;1.00;;;20.10;61.70;;;;;;5037624;28;20048;-65
2024/04/07 00:45:05;;;;;;;1.38;0.82;;;20.10;61.70;;;;;;5036229;28;20082;-64
2024/04/07 00:47:30;;;;;;;1.25;0.90;;;20.10;61.70;;;;;;5032997;28;20459;-65
2024/04/07 00:49:57;;;;;;;0.77;0.77;;;20.10;61.70;;;;;;5036910;28;20051;-65
2024/04/07 00:52:23;;;;;;;1.05;0.80;;;20.10;61.70;;;;;;5041352;28;20067;-65
2024/04/07 00:54:48;;;;;;;0.80;0.80;;;20.10;61.70;;;;;;5037039;28;20496;-65
2024/04/07 00:57:14;;;;;;;1.80;0.90;;;20.10;61.80;;;;;;5026181;28;20017;-65
2024/04/07 00:59:41;;;;;;;2.33;0.80;;;20.10;61.70;;;;;;5037230;28;20060;-65
2024/04/07 01:02:08;;;;;;;1.50;1.05;;;20.00;61.60;;;;;;5042783;28;20395;-65
2024/04/07 01:04:34;;;;;;;1.58;0.90;;;20.00;61.50;;;;;;5031024;28;20193;-66
2024/04/07 01:07:00;;;;;;;2.67;1.00;;;20.00;61.50;;;;;;5036961;28;20052;-65
2024/04/07 01:09:26;;;;;;;1.75;1.00;;;20.00;61.30;;;;;;5029463;28;20488;-65
2024/04/07 01:11:52;;;;;;;3.20;1.02;;;20.00;61.20;;;;;;5030376;28;20387;-65
2024/04/07 01:14:18;;;;;;;2.78;1.10;;;20.00;61.30;;;;;;5026191;28;20021;-65
2024/04/07 01:16:43;;;;;;;1.10;0.90;;;20.00;61.20;;;;;;5030816;28;20032;-66
2024/04/07 01:19:09;;;;;;;2.45;1.20;;;19.90;61.10;;;;;;5036141;28;20033;-66
2024/04/07 01:21:34;;;;;;;1.92;1.27;;;19.90;61.20;;;;;;5033151;28;20029;-65
2024/04/07 01:24:00;;;;;;;2.80;1.20;;;19.80;61.20;;;;;;5026918;28;20032;-66
2024/04/07 01:26:25;;;;;;;3.28;1.30;;;19.80;61.30;;;;;;5035314;28;20033;-66
2024/04/07 01:28:51;;;;;;;2.17;1.10;;;19.70;61.40;;;;;;5026168;28;20518;-66
2024/04/07 01:31:17;;;;;;;2.15;1.10;;;19.70;61.50;;;;;;5024112;28;20033;-66
2024/04/07 01:33:43;;;;;;;3.95;1.20;;;19.70;61.60;;;;;;5028327;28;20025;-65
2024/04/07 01:36:08;;;;;;;1.90;1.10;;;19.60;61.80;;;;;;5031136;28;20104;-66
2024/04/07 01:38:34;;;;;;;2.15;1.10;;;19.50;61.90;;;;;;5030687;28;20108;-66
2024/04/07 01:41:00;;;;;;;2.92;1.27;;;19.50;62.20;;;;;;5031374;28;20065;-65
2024/04/07 01:43:25;;;;;;;4.28;1.10;;;19.40;62.40;;;;;;5036423;28;20032;-66
2024/04/07 01:45:51;;;;;;;2.50;1.10;;;19.40;62.70;;;;;;5032312;28;20115;-66
2024/04/07 01:48:16;;;;;;;1.17;0.80;;;19.30;63.30;;;;;;5023987;28;20045;-65
2024/04/07 01:50:42;;;;;;;1.58;0.90;;;19.30;62.80;;;;;;5034109;28;20025;-66
2024/04/07 01:53:08;;;;;;;1.85;0.90;;;19.30;63.00;;;;;;5029678;28;20044;-66
2024/04/07 01:55:34;;;;;;;1.85;0.70;;;19.20;63.20;;;;;;5032852;28;20068;-66
2024/04/07 01:57:59;;;;;;;1.10;0.85;;;19.20;63.30;;;;;;5034927;28;20034;-66
2024/04/07 02:00:25;;;;;;;3.65;1.13;;;19.10;63.50;;;;;;5040820;28;20419;-67
2024/04/07 02:02:51;;;;;;;0.90;0.80;;;19.00;63.90;;;;;;5035242;28;20025;-65
2024/04/07 02:05:16;;;;;;;3.10;1.10;;;19.00;64.00;;;;;;5028339;28;20017;-65
2024/04/07 02:07:42;;;;;;;2.25;0.93;;;18.90;64.50;;;;;;5017764;28;20022;-67
2024/04/07 02:10:08;;;;;;;2.78;1.20;;;18.80;64.90;;;;;;5037702;28;20028;-66
2024/04/07 02:12:34;;;;;;;2.90;0.93;;;18.70;65.00;;;;;;5040226;28;20026;-66
2024/04/07 02:15:00;;;;;;;1.05;0.75;;;18.60;65.30;;;;;;5032220;28;20022;-66
2024/04/07 02:17:25;;;;;;;2.60;0.90;;;18.60;65.30;;;;;;5031894;28;20032;-65
2024/04/07 02:19:52;;;;;;;2.67;0.80;;;18.60;65.40;;;;;;5031727;28;20037;-65
2024/04/07 02:22:18;;;;;;;1.10;0.60;;;18.50;65.60;;;;;;5030528;28;20024;-67
2024/04/07 02:24:44;;;;;;;1.63;0.65;;;18.40;65.60;;;;;;5028910;28;20029;-66
2024/04/07 02:27:09;;;;;;;2.08;0.70;;;18.40;65.90;;;;;;5034823;28;20032;-64
2024/04/07 02:29:35;;;;;;;1.88;0.65;;;18.30;66.10;;;;;;5044943;28;20476;-66
2024/04/07 02:32:01;;;;;;;1.40;0.68;;;18.30;66.20;;;;;;5028208;28;20427;-67
2024/04/07 02:34:26;;;;;;;0.73;0.50;;;18.30;66.30;;;;;;5039035;28;20029;-66
2024/04/07 02:36:52;;;;;;;1.13;0.60;;;18.30;66.20;;;;;;5033586;28;20029;-66
2024/04/07 02:39:19;;;;;;;1.35;0.60;;;18.20;66.30;;;;;;5026730;28;20387;-65
2024/04/07 02:41:45;;;;;;;1.13;0.50;;;18.20;66.50;;;;;;5030588;28;20445;-66
2024/04/07 02:44:11;;;;;;;1.25;0.65;;;18.10;66.70;;;;;;5038343;28;20029;-65
2024/04/07 02:49:21;;;;;;;1.30;0.70;;;18.00;66.90;;;;;;5033854;28;20585;-66
2024/04/07 02:51:46;;;;;;;1.30;0.63;;;18.00;66.90;;;;;;5028327;28;20030;-66
2024/04/07 02:54:12;;;;;;;0.73;0.50;;;18.00;67.00;;;;;;5038519;28;20112;-66
2024/04/07 02:56:38;;;;;;;1.48;0.80;;;17.90;67.30;;;;;;5022372;28;20117;-69
2024/04/07 02:59:03;;;;;;;0.70;0.70;;;17.90;67.30;;;;;;5028578;28;20057;-66
2024/04/07 03:01:29;;;;;;;1.98;0.70;;;17.80;67.60;;;;;;5032287;28;20040;-66
2024/04/07 03:03:55;;;;;;;1.27;0.70;;;17.80;68.10;;;;;;5036497;28;20025;-66
2024/04/07 03:06:20;;;;;;;2.17;0.50;;;17.80;67.40;;;;;;5033880;28;20049;-65
2024/04/07 03:08:46;;;;;;;0.95;0.50;;;17.80;67.50;;;;;;5048805;28;20100;-65
2024/04/07 03:11:12;;;;;;;1.02;0.40;;;17.70;67.40;;;;;;5041886;28;20018;-66
2024/04/07 03:13:38;;;;;;;0.80;0.40;;;17.70;67.40;;;;;;5036255;28;20029;-66
2024/04/07 03:16:10;;;;;;;1.85;0.40;;;17.70;67.40;;;;;;5037174;28;20025;-66
2024/04/07 03:18:36;;;;;;;1.23;0.47;;;17.70;67.50;;;;;;5037036;28;20033;-65
2024/04/07 03:21:05;;;;;;;1.75;0.50;;;17.70;67.40;;;;;;5032960;28;20328;-65
2024/04/07 03:23:31;;;;;;;1.55;0.50;;;17.70;67.50;;;;;;5030789;28;20060;-65
2024/04/07 03:25:56;;;;;;;1.23;0.65;;;17.60;67.40;;;;;;5037102;28;20484;-65
2024/04/07 03:28:22;;;;;;;0.73;0.47;;;17.60;67.60;;;;;;5036855;28;20480;-65
2024/04/07 03:30:48;;;;;;;1.25;0.60;;;17.60;67.50;;;;;;5042275;28;20512;-65
2024/04/07 03:33:14;;;;;;;0.93;0.50;;;17.50;67.60;;;;;;5036153;28;20021;-66
2024/04/07 03:35:39;;;;;;;1.27;0.50;;;17.50;67.70;;;;;;5024833;28;20619;-66
2024/04/07 03:38:05;;;;;;;2.67;0.80;;;17.50;67.60;;;;;;5038130;28;20123;-65
2024/04/07 03:40:30;;;;;;;0.55;0.50;;;17.50;67.80;;;;;;5036127;28;20028;-66
2024/04/07 03:42:56;;;;;;;1.25;0.60;;;17.50;67.50;;;;;;5036649;28;20033;-65
2024/04/07 03:45:21;;;;;;;1.20;0.60;;;17.50;67.50;;;;;;5030823;28;20017;-66
2024/04/07 03:47:48;;;;;;;1.33;0.70;;;17.40;67.50;;;;;;5038511;28;20426;-66
2024/04/07 03:50:14;;;;;;;1.45;0.65;;;17.40;67.80;;;;;;5040474;28;20076;-65
2024/04/07 03:52:40;;;;;;;1.65;0.60;;;17.40;67.90;;;;;;5038409;28;20021;-67
2024/04/07 03:55:06;;;;;;;1.75;0.68;;;17.40;67.80;;;;;;5028554;28;20030;-66
2024/04/07 03:57:32;;;;;;;1.42;0.40;;;17.40;67.70;;;;;;5027273;28;20577;-66
2024/04/07 03:59:58;;;;;;;1.27;0.40;;;17.40;67.70;;;;;;5029199;28;20025;-66
2024/04/07 04:02:28;;;;;;;1.02;0.60;;;17.40;67.70;;;;;;5039425;28;20087;-65
2024/04/07 04:05:04;;;;;;;1.58;0.50;;;17.40;67.50;;;;;;5030950;28;20029;-65
2024/04/07 04:07:30;;;;;;;0.52;0.40;;;17.40;67.40;;;;;;5038999;28;20038;-66
2024/04/07 04:10:00;;;;;;;3.03;0.55;;;17.40;67.40;;;;;;5037222;28;20025;-66
2024/04/07 04:12:27;;;;;;;2.63;0.50;;;17.40;67.40;;;;;;5037072;28;20052;-66
2024/04/07 04:14:53;;;;;;;1.92;0.85;;;17.40;67.20;;;;;;5031831;28;20396;-67
2024/04/07 04:17:19;;;;;;;0.60;0.52;;;17.40;67.10;;;;;;5037008;28;20031;-65
2024/04/07 04:19:45;;;;;;;0.57;0.40;;;17.40;66.90;;;;;;5041160;28;20091;-65
2024/04/07 04:22:11;;;;;;;0.88;0.45;;;17.40;66.80;;;;;;5036392;28;20455;-66
2024/04/07 04:24:37;;;;;;;0.95;0.40;;;17.50;66.60;;;;;;5033954;28;20473;-66
2024/04/07 04:27:03;;;;;;;0.90;0.43;;;17.50;66.40;;;;;;5036059;28;20029;-67
2024/04/07 04:29:36;;;;;;;2.25;0.50;;;17.50;66.30;;;;;;5040527;28;20017;-66
2024/04/07 04:32:02;;;;;;;1.75;0.60;;;17.50;66.00;;;;;;5033468;28;20528;-66
2024/04/07 04:34:31;;;;;;;0.50;0.40;;;17.50;65.50;;;;;;5035622;28;20055;-66
2024/04/07 04:36:57;;;;;;;0.75;0.40;;;17.50;65.60;;;;;;5031562;28;20029;-66
2024/04/07 04:39:23;;;;;;;0.98;0.40;;;17.50;65.50;;;;;;5025229;28;20091;-67
2024/04/07 04:41:49;;;;;;;0.38;0.38;;;17.50;65.20;;;;;;5028685;28;20520;-66
2024/04/07 04:44:15;;;;;;;0.88;0.43;;;17.50;65.10;;;;;;5034756;28;20021;-66
2024/04/07 04:46:42;;;;;;;0.70;0.40;;;17.50;64.80;;;;;;5030343;28;20061;-66
2024/04/07 04:49:09;;;;;;;1.65;0.40;;;17.50;64.60;;;;;;5041850;28;20492;-66
2024/04/07 04:51:34;;;;;;;1.30;0.50;;;17.50;64.50;;;;;;5037965;28;20036;-67
2024/04/07 04:54:00;;;;;;;1.08;0.40;;;17.50;64.40;;;;;;5036415;28;20022;-65
2024/04/07 04:56:25;;;;;;;0.63;0.40;;;17.50;64.50;;;;;;5039311;28;20589;-67
2024/04/07 04:58:52;;;;;;;1.02;0.40;;;17.50;64.50;;;;;;5029019;28;20408;-66
2024/04/07 05:01:18;;;;;;;0.60;0.38;;;17.50;64.50;;;;;;5029950;28;20067;-66
2024/04/07 05:03:44;;;;;;;1.25;0.40;;;17.40;64.30;;;;;;5038047;28;20496;-66
2024/04/07 05:06:12;;;;;;;1.08;0.30;;;17.40;64.90;;;;;;5037959;28;20108;-65
2024/04/07 05:08:39;;;;;;;0.75;0.40;;;17.40;64.30;;;;;;5033842;28;20013;-65
2024/04/07 05:11:05;;;;;;;0.60;0.30;;;17.40;63.90;;;;;;5036605;28;20033;-66
2024/04/07 05:13:34;;;;;;;0.40;0.30;;;17.40;63.90;;;;;;5035002;28;20171;-66
2024/04/07 05:16:00;;;;;;;2.05;0.40;;;17.40;63.70;;;;;;5026997;28;20099;-66
2024/04/07 05:18:26;;;;;;;0.30;0.30;;;17.40;63.70;;;;;;5029100;28;20083;-65
2024/04/07 05:20:53;;;;;;;0.73;0.30;;;17.40;63.60;;;;;;5031287;28;20487;-66
2024/04/07 05:23:19;;;;;;;1.33;0.40;;;17.40;63.60;;;;;;5034505;28;20021;-67
2024/04/07 05:25:44;;;;;;;0.55;0.38;;;17.30;63.70;;;;;;5029616;28;20494;-67
2024/04/07 05:28:11;;;;;;;0.90;0.32;;;17.30;63.50;;;;;;5034715;28;20101;-67
2024/04/07 05:30:37;;;;;;;0.47;0.30;;;17.40;63.70;;;;;;5039779;28;20022;-66
2024/04/07 05:33:03;;;;;;;1.38;0.40;;;17.40;63.50;;;;;;5025698;28;20088;-66
2024/04/07 05:35:29;;;;;;;0.38;0.20;;;17.30;63.10;;;;;;5026908;28;20488;-65
2024/04/07 05:37:54;;;;;;;0.57;0.40;;;17.40;63.60;;;;;;5035584;28;20560;-66
2024/04/07 05:40:20;;;;;;;0.40;0.40;;;17.40;63.60;;;;;;5033725;28;20439;-67
2024/04/07 05:42:45;;;;;;;0.55;0.35;;;17.30;63.70;;;;;;5027909;28;20022;-66
2024/04/07 05:45:11;;;;;;;0.70;0.40;;;17.40;63.80;;;;;;5033259;28;20033;-64
2024/04/07 05:47:36;;;;;;;0.47;0.30;;;17.40;63.80;;;;;;5035269;28;20033;-65
2024/04/07 05:50:02;;;;;;;0.40;0.40;;;17.40;63.90;;;;;;5034850;28;20083;-65
2024/04/07 05:52:27;;;;;;;0.77;0.30;;;17.40;63.90;;;;;;5036632;28;20029;-65
2024/04/07 05:54:53;;;;;;;0.60;0.30;;;17.40;64.00;;;;;;5030410;28;20021;-65
2024/04/07 05:57:19;;;;;;;0.80;0.30;;;17.30;64.00;;;;;;5033028;28;20040;-66
2024/04/07 05:59:47;;;;;;;0.38;0.30;;;17.30;64.10;;;;;;5023129;28;20031;-65
2024/04/07 06:02:13;;;;;;;0.30;0.30;;;17.30;64.10;;;;;;5028167;28;20030;-65
2024/04/07 06:04:39;;;;;;;1.20;0.40;;;17.40;64.20;;;;;;5034891;28;20171;-65
2024/04/07 06:07:05;;;;;;;0.55;0.40;;;17.30;64.30;;;;;;5032428;28;20022;-64
2024/04/07 06:09:31;;;;;;;0.57;0.40;;;17.30;64.40;;;;;;5032331;28;20028;-65
2024/04/07 06:11:56;;;;;;;1.33;0.40;;;17.30;64.40;;;;;;5037928;28;20025;-66
2024/04/07 06:14:22;;;;;;;0.68;0.40;;;17.30;64.40;;;;;;5031618;28;20047;-66
2024/04/07 06:16:48;;;;;;;0.90;0.38;;;17.30;64.60;;;;;;5028449;28;20029;-66
2024/04/07 06:19:13;;;;;;;1.55;0.32;;;17.30;64.60;;;;;;5027178;28;20041;-64
2024/04/07 06:21:39;;;;;;;2.63;0.52;;;17.30;64.70;;;;;;5027487;28;20040;-65
2024/04/07 06:24:05;;;;;;;0.20;0.20;;;17.40;64.60;;;;;;5023687;28;20020;-66
2024/04/07 06:26:30;;;;;;;0.68;0.28;;;17.50;64.40;;;;;;5027306;28;20037;-66
2024/04/07 06:28:56;;;;;;;0.30;0.30;;;17.70;64.30;;;;;;5025098;28;20101;-66
2024/04/07 06:31:22;;;;;;;0.40;0.40;;;17.80;64.10;;;;;;5021386;28;20053;-66
2024/04/07 06:33:48;;;;;;;0.30;0.30;;;17.70;64.10;;;;;;5030978;28;20375;-66
2024/04/07 06:36:13;;;;;;;1.48;0.40;;;17.60;64.30;;;;;;5033030;28;20029;-65
2024/04/07 06:38:39;;;;;;;2.60;0.47;;;17.50;64.50;;;;;;5029680;28;20029;-66
2024/04/07 06:41:05;;;;;;;1.05;0.40;;;17.40;64.80;;;;;;5027230;28;20036;-67
2024/04/07 06:43:31;;;;;;;1.73;0.47;;;17.50;64.90;;;;;;5028105;28;20385;-66
2024/04/07 06:45:57;;;;;;;0.65;0.40;;;18.30;64.40;;;;;;5028102;28;20025;-66
2024/04/07 06:48:23;;;;;;;1.63;0.43;;;19.10;62.60;;;;;;5031268;28;20017;-66
2024/04/07 06:50:49;;;;;;;0.82;0.40;;;19.80;61.10;;;;;;5031069;28;20124;-66
2024/04/07 06:53:14;;;;;;;0.77;0.30;;;20.60;59.70;;;;;;5032168;28;20048;-66
2024/04/07 06:55:40;;;;;;;1.73;0.30;;;21.20;58.40;;;;;;5034926;28;20026;-66
2024/04/07 06:58:06;;;;;;;0.77;0.30;;;20.70;58.50;;;;;;5028424;28;20025;-66
2024/04/07 07:00:31;;;;;;;0.32;0.30;;;20.10;59.40;;;;;;5033774;28;20207;-66
2024/04/07 07:02:57;;;;;;;1.52;0.40;;;19.50;60.40;;;;;;5021259;28;20021;-64
2024/04/07 07:05:22;;;;;;;1.65;0.40;;;19.10;61.40;;;;;;5028401;28;20029;-65
2024/04/07 07:07:48;;;;;;;0.85;0.30;;;19.30;62.00;;;;;;5020965;28;20424;-66
2024/04/07 07:10:14;;;;;;;1.33;0.50;;;20.40;60.70;;;;;;5022755;28;20057;-66
2024/04/07 07:12:39;;;;;;;1.42;0.50;;;22.20;58.10;;;;;;5024011;28;20349;-66
2024/04/07 07:15:05;;;;;;;0.73;0.40;;;23.50;54.70;;;;;;5032077;28;20381;-66
2024/04/07 07:17:31;;;;;;;0.68;0.40;;;24.50;53.40;;;;;;5033549;28;20036;-65
2024/04/07 07:19:57;;;;;;;2.35;0.57;;;25.40;51.40;;;;;;5035013;28;20036;-66
2024/04/07 07:22:22;;;;;;;0.50;0.40;;;24.90;50.90;;;;;;5027717;28;20500;-66
2024/04/07 07:24:48;;;;;;;0.60;0.35;;;23.50;52.50;;;;;;5025656;28;20392;-66
2024/04/07 07:27:13;;;;;;;0.50;0.40;;;22.20;54.30;;;;;;5027372;28;20018;-65
2024/04/07 07:29:39;;;;;;;0.80;0.30;;;21.30;56.40;;;;;;5024629;28;20409;-65
2024/04/07 07:32:06;;;;;;;0.80;0.50;;;20.50;58.00;;;;;;5027242;28;20488;-65
2024/04/07 07:34:32;;;;;;;1.20;0.45;;;19.90;59.10;;;;;;5027202;28;20024;-66
2024/04/07 07:36:58;;;;;;;1.33;0.50;;;19.50;60.10;;;;;;5029646;28;20107;-66
2024/04/07 07:39:24;;;;;;;1.55;0.50;;;19.30;60.70;;;;;;5032624;28;20041;-66
2024/04/07 07:41:49;;;;;;;0.88;0.50;;;18.90;61.50;;;;;;5027529;28;20033;-67
2024/04/07 07:44:15;;;;;;;1.00;0.40;;;18.90;61.80;;;;;;5027311;28;20036;-65
2024/04/07 07:46:40;;;;;;;1.73;0.50;;;18.90;61.90;;;;;;5028455;28;20041;-65
2024/04/07 07:49:06;;;;;;;1.60;0.60;;;18.80;62.20;;;;;;5029001;28;20036;-66
2024/04/07 07:51:32;;;;;;;0.47;0.40;;;19.80;61.90;;;;;;5031102;28;20026;-65
2024/04/07 07:53:58;;;;;;;0.40;0.40;;;22.10;58.10;;;;;;5038764;28;20135;-66
2024/04/07 07:56:24;;;;;;;1.08;0.45;;;23.80;54.90;;;;;;5036617;28;20029;-65
2024/04/07 07:58:50;;;;;;;0.85;0.40;;;25.00;52.50;;;;;;5042209;28;20361;-66
2024/04/07 08:01:15;;;;;;;1.70;0.50;;;26.10;50.60;;;;;;5038896;28;20028;-66
2024/04/07 08:03:41;;;;;;;0.95;0.60;;;26.60;49.50;;;;;;5034980;28;20021;-65
2024/04/07 08:06:07;;;;;;;1.27;0.50;;;26.60;48.40;;;;;;5034653;28;20484;-66
2024/04/07 08:08:32;;;;;;;1.15;0.60;;;26.40;48.20;;;;;;5038102;28;20488;-66
2024/04/07 08:10:58;;;;;;;2.22;0.98;;;25.90;48.10;;;;;;5035464;28;20397;-65
2024/04/07 08:13:24;;;;;;;2.67;0.88;;;25.50;48.50;;;;;;5037545;28;20049;-66
2024/04/07 08:15:49;;;;;;;0.40;0.40;;;25.30;48.90;;;;;;5035972;28;20033;-66
2024/04/07 08:18:15;;;;;;;0.82;0.40;;;25.20;48.90;;;;;;5029194;28;20021;-66
2024/04/07 08:20:42;;;;;;;1.60;0.70;;;25.00;49.50;;;;;;5034867;28;20035;-66
2024/04/07 08:23:08;;;;;;;1.33;0.50;;;25.00;49.40;;;;;;5035466;28;20035;-66
2024/04/07 08:25:34;;;;;;;2.45;0.60;;;24.00;50.90;;;;;;5028359;28;20028;-67
2024/04/07 08:28:01;;;;;;;1.63;0.52;;;22.90;52.70;;;;;;5033479;28;20484;-65
2024/04/07 08:30:26;;;;;;;0.70;0.50;;;22.20;54.50;;;;;;5032254;28;20083;-65
2024/04/07 08:32:55;;;;;;;1.38;0.70;;;21.60;55.60;;;;;;5021128;28;20022;-65
2024/04/07 08:35:21;;;;;;;2.25;0.70;;;21.10;56.60;;;;;;5029004;28;20076;-67
2024/04/07 08:37:46;;;;;;;2.15;0.77;;;20.80;57.80;;;;;;5042394;28;20029;-66
2024/04/07 08:40:12;;;;;;;2.80;0.77;;;20.60;58.50;;;;;;5035109;28;20384;-65
2024/04/07 08:42:40;;;;;;;1.30;0.40;;;20.50;58.90;;;;;;5039732;28;20033;-65
2024/04/07 08:45:07;;;;;;;2.78;0.90;;;20.40;59.30;;;;;;5031349;28;20021;-66
2024/04/07 08:47:35;;;;;;;1.55;0.52;;;20.30;59.60;;;;;;5020197;28;20029;-65
2024/04/07 08:50:02;;;;;;;1.55;0.57;;;20.10;60.20;;;;;;5025112;28;20021;-66
2024/04/07 08:52:29;;;;;;;2.47;0.77;;;19.90;60.50;;;;;;5027861;28;20021;-66
2024/04/07 08:54:56;;;;;;;2.05;0.82;;;19.80;60.70;;;;;;5026823;28;20112;-65
2024/04/07 08:57:23;;;;;;;0.93;0.70;;;19.60;61.10;;;;;;5028878;28;20035;-66
2024/04/07 08:59:51;;;;;;;1.38;0.85;;;19.60;61.50;;;;;;5026007;28;20052;-63
2024/04/07 09:02:18;;;;;;;0.95;0.40;;;19.60;61.50;;;;;;5022087;28;20048;-64
2024/04/07 09:04:44;;;;;;;0.98;0.50;;;19.70;61.50;;;;;;5026990;28;20120;-64
2024/04/07 09:07:10;;;;;;;1.25;0.43;;;19.70;61.50;;;;;;5026386;28;20120;-64
2024/04/07 09:09:36;;;;;;;1.33;0.50;;;19.80;61.40;;;;;;5025741;28;20088;-65
2024/04/07 09:12:03;;;;;;;1.27;0.50;;;19.80;61.30;;;;;;5025631;28;20022;-66
2024/04/07 09:14:32;;;;;;;1.35;0.50;;;19.80;61.30;;;;;;5024335;28;20028;-65
2024/04/07 09:17:03;;;;;;;2.42;0.73;;;19.90;61.50;;;;;;5021757;28;20025;-65
2024/04/07 09:19:31;;;;;;;1.02;0.60;;;19.90;61.40;;;;;;5033445;28;20397;-65
2024/04/07 09:21:56;;;;;;;1.55;0.50;;;19.80;61.50;;;;;;5027449;28;20117;-65
2024/04/07 09:24:22;;;;;;;2.05;0.65;;;19.80;61.50;;;;;;5026091;28;20141;-66
2024/04/07 09:26:47;;;;;;;1.17;0.60;;;19.80;61.60;;;;;;5023273;28;20065;-65
2024/04/07 09:29:13;;;;;;;2.08;0.70;;;19.80;61.60;;;;;;5021603;28;20423;-66
2024/04/07 09:31:39;;;;;;;1.67;0.70;;;19.80;61.40;;;;;;5026329;28;20048;-66
2024/04/07 09:34:04;;;;;;;0.77;0.47;;;19.80;61.20;;;;;;5029457;28;20064;-66
2024/04/07 09:36:30;;;;;;;0.60;0.50;;;19.80;61.30;;;;;;5027127;28;20112;-65
2024/04/07 09:38:56;;;;;;;2.08;0.68;;;19.90;61.30;;;;;;5032842;28;20879;-66
2024/04/07 09:41:24;;;;;;;0.60;0.40;;;20.00;61.30;;;;;;5031045;28;20024;-66
2024/04/07 09:43:52;;;;;;;1.83;0.57;;;20.10;61.20;;;;;;5028583;28;20052;-66
2024/04/07 09:46:21;;;;;;;0.80;0.50;;;20.10;60.90;;;;;;5029136;28;20468;-65
2024/04/07 09:48:50;;;;;;;2.28;0.70;;;20.20;60.60;;;;;;5023787;28;20507;-66
2024/04/07 09:51:20;;;;;;;1.05;0.50;;;20.30;60.30;;;;;;5025544;28;20523;-65
2024/04/07 09:54:02;;;;;;;0.70;0.57;;;20.20;60.10;;;;;;5025860;28;20045;-67
2024/04/07 09:56:32;;;;;;;1.70;0.60;;;20.20;60.00;;;;;;5050830;28;20134;-66
2024/04/07 09:58:59;;;;;;;1.33;0.68;;;20.10;59.90;;;;;;5022122;28;20493;-66
2024/04/07 10:01:25;;;;;;;3.83;0.80;;;20.10;60.00;;;;;;5032708;28;20029;-67
2024/04/07 10:03:52;;;;;;;1.95;0.80;;;20.00;59.70;;;;;;5031649;28;20029;-66
2024/04/07 10:06:19;;;;;;;2.25;0.70;;;19.90;59.60;;;;;;5024756;28;20028;-66
2024/04/07 10:08:45;;;;;;;0.80;0.70;;;20.00;59.90;;;;;;5029747;28;20088;-66
2024/04/07 10:11:15;;;;;;;0.73;0.50;;;20.10;59.80;;;;;;5029218;28;20492;-67
2024/04/07 10:13:41;;;;;;;0.95;0.50;;;20.10;59.80;;;;;;5028235;28;20026;-66
2024/04/07 10:16:07;;;;;;;1.52;0.60;;;20.20;60.40;;;;;;5025446;28;20029;-66
2024/04/07 10:18:33;;;;;;;2.67;0.60;;;20.20;59.70;;;;;;5029216;28;20035;-66
2024/04/07 10:20:59;;;;;;;1.05;0.60;;;20.30;59.70;;;;;;5023101;28;20029;-66
2024/04/07 10:23:28;;;;;;;0.80;0.70;;;20.30;59.30;;;;;;5026913;28;20436;-69
2024/04/07 10:26:03;;;;;;;1.00;0.50;;;20.30;59.50;;;;;;5026551;28;20064;-66
2024/04/07 10:28:47;;;;;;;0.50;0.50;;;20.40;59.40;;;;;;5022776;28;20033;-65
2024/04/07 10:31:21;;;;;;;3.38;0.98;;;20.50;59.50;;;;;;5031724;28;20503;-65
2024/04/07 10:33:48;;;;;;;0.75;0.45;;;20.70;58.60;;;;;;5025871;28;20032;-67
2024/04/07 10:36:18;;;;;;;1.20;0.60;;;20.70;58.40;;;;;;5025825;28;20037;-66
2024/04/07 10:38:47;;;;;;;1.40;0.55;;;20.90;58.60;;;;;;5025579;28;20097;-65
2024/04/07 10:41:17;;;;;;;2.05;0.70;;;21.10;58.40;;;;;;5023204;28;21677;-66
2024/04/07 10:43:44;;;;;;;0.60;0.38;;;21.20;57.80;;;;;;5024869;28;20056;-66
2024/04/07 10:46:10;;;;;;;2.88;0.82;;;21.20;57.00;;;;;;5026093;28;20124;-66
2024/04/07 10:48:36;;;;;;;1.60;0.63;;;21.20;57.20;;;;;;5025846;28;20177;-65
2024/04/07 10:51:03;;;;;;;0.73;0.40;;;21.30;56.50;;;;;;5027559;28;20619;-66
2024/04/07 10:53:29;;;;;;;0.68;0.50;;;21.20;56.40;;;;;;5025856;28;20408;-66
2024/04/07 10:55:54;;;;;;;1.95;0.70;;;21.30;55.90;;;;;;5021765;28;20029;-66
2024/04/07 10:58:20;;;;;;;1.58;0.57;;;21.20;55.40;;;;;;5028833;28;20079;-67
2024/04/07 11:00:46;;;;;;;1.63;0.60;;;21.30;55.70;;;;;;5026560;28;20076;-67
2024/04/07 11:03:11;;;;;;;1.40;0.70;;;21.30;55.70;;;;;;5025403;28;20025;-66
2024/04/07 11:05:37;;;;;;;1.27;0.60;;;21.40;55.80;;;;;;5027601;28;20049;-66
2024/04/07 11:08:03;;;;;;;2.65;0.60;;;21.50;55.50;;;;;;5028691;28;20156;-66
2024/04/07 11:10:38;;;;;;;1.25;0.70;;;21.50;55.10;;;;;;5026303;28;20033;-66
2024/04/07 11:13:06;;;;;;;1.10;0.60;;;21.50;55.20;;;;;;5030256;28;20068;-66
2024/04/07 11:15:32;;;;;;;0.70;0.50;;;21.60;55.20;;;;;;5027744;28;20036;-67
2024/04/07 11:17:59;;;;;;;0.50;0.50;;;21.80;55.40;;;;;;5028568;28;20030;-67
2024/04/07 11:20:24;;;;;;;2.08;1.05;;;21.90;55.20;;;;;;5029959;28;20492;-66
2024/04/07 11:22:50;;;;;;;1.52;0.75;;;22.00;54.50;;;;;;5028046;28;20038;-65
2024/04/07 11:25:16;;;;;;;0.80;0.50;;;22.00;54.00;;;;;;5025755;28;20063;-66
2024/04/07 11:27:42;;;;;;;1.17;0.60;;;22.10;54.00;;;;;;5035855;28;20036;-66
2024/04/07 11:30:08;;;;;;;0.93;0.50;;;22.10;53.80;;;;;;5028827;28;20062;-67
2024/04/07 11:32:37;;;;;;;0.85;0.43;;;22.20;53.90;;;;;;5029833;28;20113;-67
2024/04/07 11:35:05;;;;;;;0.88;0.40;;;22.30;53.50;;;;;;5027934;28;20143;-68
2024/04/07 11:37:30;;;;;;;1.58;0.43;;;22.30;53.70;;;;;;5031792;28;20037;-66
2024/04/07 11:39:56;;;;;;;1.65;0.43;;;22.40;53.40;;;;;;5032532;28;20037;-66
2024/04/07 11:42:23;;;;;;;2.15;0.60;;;22.40;52.90;;;;;;5035495;28;20017;-66
2024/04/07 11:44:49;;;;;;;1.65;0.52;;;22.40;53.00;;;;;;5028946;28;20035;-66
2024/04/07 11:47:15;;;;;;;0.43;0.40;;;22.60;52.60;;;;;;5033545;28;20025;-67
2024/04/07 11:49:41;;;;;;;1.52;0.60;;;22.60;52.30;;;;;;5034592;28;20087;-67
2024/04/07 11:52:06;;;;;;;1.60;0.60;;;22.60;51.60;;;;;;5030970;28;20072;-67
2024/04/07 11:54:32;;;;;;;1.80;0.57;;;22.50;51.10;;;;;;5029013;28;20025;-67
2024/04/07 11:56:59;;;;;;;0.82;0.50;;;22.60;51.30;;;;;;5031101;28;20045;-66
2024/04/07 11:59:25;;;;;;;1.20;0.40;;;22.80;51.50;;;;;;5033548;28;20029;-67
2024/04/07 12:01:50;;;;;;;0.98;0.50;;;22.80;51.70;;;;;;5032106;28;20105;-68
2024/04/07 12:04:16;;;;;;;0.98;0.47;;;22.80;50.70;;;;;;5031120;28;20028;-67
2024/04/07 12:06:42;;;;;;;1.00;0.60;;;22.80;50.40;;;;;;5033662;28;20035;-66
2024/04/07 12:09:07;;;;;;;1.40;0.45;;;22.80;50.20;;;;;;5030308;28;20029;-67
2024/04/07 12:11:34;;;;;;;1.60;0.50;;;22.70;49.60;;;;;;5035066;28;20031;-67
2024/04/07 12:13:59;;;;;;;1.25;0.40;;;22.80;50.50;;;;;;5026010;28;20494;-68
2024/04/07 12:16:25;;;;;;;0.60;0.40;;;23.00;50.80;;;;;;5027074;28;20029;-67
2024/04/07 12:18:50;;;;;;;1.00;0.50;;;23.20;50.70;;;;;;5030183;28;20041;-67
2024/04/07 12:21:16;;;;;;;1.83;0.70;;;23.40;50.40;;;;;;5028911;28;20033;-66
2024/04/07 12:23:42;;;;;;;0.70;0.40;;;23.40;49.20;;;;;;5032061;28;20048;-67
2024/04/07 12:26:08;;;;;;;0.70;0.40;;;23.30;49.30;;;;;;5026968;28;20030;-68
2024/04/07 12:28:34;;;;;;;0.88;0.40;;;23.40;49.20;;;;;;5032822;28;20499;-67
2024/04/07 12:31:00;;;;;;;1.85;0.50;;;23.40;49.40;;;;;;5031003;28;20061;-67
2024/04/07 12:33:26;;;;;;;2.08;0.60;;;23.40;48.40;;;;;;5033522;28;20037;-66
2024/04/07 12:35:53;;;;;;;0.30;0.30;;;23.50;48.40;;;;;;5032809;28;20034;-66
2024/04/07 12:38:18;;;;;;;0.47;0.32;;;23.60;48.00;;;;;;5036645;28;20027;-67
2024/04/07 12:40:44;;;;;;;0.40;0.40;;;23.60;48.30;;;;;;5032496;28;20492;-67
2024/04/07 12:43:09;;;;;;;0.73;0.40;;;23.60;47.90;;;;;;5035974;28;20021;-66
2024/04/07 12:45:35;;;;;;;0.47;0.43;;;23.70;47.50;;;;;;5031545;28;20077;-66